sensor_id;sensor_type;location;lat;lon;timestamp;P1;durP1;ratioP1;P2;durP2;ratioP2
78209;SDS011;67485;48.816;9.930;2023-02-28T00:01:20;3.25;;;1.30;;
78209;SDS011;67485;48.816;9.930;2023-02-28T00:03:46;4.60;;;1.45;;
78209;SDS011;67485;48.816;9.930;2023-02-28T00:06:12;3.92;;;1.45;;
78209;SDS011;67485;48.816;9.930;2023-02-28T00:08:38;3.13;;;1.10;;
78209;SDS011;67485;48.816;9.930;2023-02-28T00:11:05;4.80;;;1.30;;
78209;SDS011;67485;48.816;9.930;2023-02-28T00:13:33;3.65;;;1.38;;
78209;SDS011;67485;48.816;9.930;2023-02-28T00:16:02;3.35;;;1.33;;
78209;SDS011;67485;48.816;9.930;2023-02-28T00:18:30;3.60;;;1.30;;
78209;SDS011;67485;48.816;9.930;2023-02-28T00:20:56;8.05;;;1.88;;
78209;SDS011;67485;48.816;9.930;2023-02-28T00:23:23;5.70;;;1.52;;
78209;SDS011;67485;48.816;9.930;2023-02-28T00:25:49;2.90;;;1.27;;
78209;SDS011;67485;48.816;9.930;2023-02-28T00:28:15;3.35;;;1.50;;
78209;SDS011;67485;48.816;9.930;2023-02-28T00:30:41;4.80;;;1.75;;
78209;SDS011;67485;48.816;9.930;2023-02-28T00:33:07;7.07;;;2.50;;
78209;SDS011;67485;48.816;9.930;2023-02-28T00:35:32;3.33;;;1.40;;
78209;SDS011;67485;48.816;9.930;2023-02-28T00:37:58;3.35;;;1.52;;
78209;SDS011;67485;48.816;9.930;2023-02-28T00:40:26;4.05;;;1.30;;
78209;SDS011;67485;48.816;9.930;2023-02-28T00:42:52;3.70;;;1.48;;
78209;SDS011;67485;48.816;9.930;2023-02-28T00:45:17;3.57;;;1.40;;
78209;SDS011;67485;48.816;9.930;2023-02-28T00:47:44;4.45;;;1.75;;
78209;SDS011;67485;48.816;9.930;2023-02-28T00:50:11;4.32;;;1.58;;
78209;SDS011;67485;48.816;9.930;2023-02-28T00:52:37;6.20;;;1.75;;
78209;SDS011;67485;48.816;9.930;2023-02-28T00:55:03;5.53;;;1.70;;
78209;SDS011;67485;48.816;9.930;2023-02-28T00:57:30;4.93;;;1.60;;
78209;SDS011;67485;48.816;9.930;2023-02-28T00:59:55;6.28;;;1.80;;
78209;SDS011;67485;48.816;9.930;2023-02-28T01:02:22;4.18;;;1.65;;
78209;SDS011;67485;48.816;9.930;2023-02-28T01:04:48;2.80;;;1.58;;
78209;SDS011;67485;48.816;9.930;2023-02-28T01:07:13;4.77;;;1.67;;
78209;SDS011;67485;48.816;9.930;2023-02-28T01:09:40;5.10;;;1.77;;
78209;SDS011;67485;48.816;9.930;2023-02-28T01:12:07;3.13;;;1.48;;
78209;SDS011;67485;48.816;9.930;2023-02-28T01:14:33;5.10;;;1.80;;
78209;SDS011;67485;48.816;9.930;2023-02-28T01:17:00;6.43;;;1.48;;
78209;SDS011;67485;48.816;9.930;2023-02-28T01:19:26;4.30;;;1.85;;
78209;SDS011;67485;48.816;9.930;2023-02-28T01:21:51;3.92;;;1.63;;
78209;SDS011;67485;48.816;9.930;2023-02-28T01:24:17;6.03;;;1.70;;
78209;SDS011;67485;48.816;9.930;2023-02-28T01:26:44;4.30;;;1.73;;
78209;SDS011;67485;48.816;9.930;2023-02-28T01:29:09;4.50;;;1.63;;
78209;SDS011;67485;48.816;9.930;2023-02-28T01:31:35;7.07;;;1.87;;
78209;SDS011;67485;48.816;9.930;2023-02-28T01:34:02;4.97;;;1.50;;
78209;SDS011;67485;48.816;9.930;2023-02-28T01:36:28;3.38;;;1.58;;
78209;SDS011;67485;48.816;9.930;2023-02-28T01:38:54;5.13;;;2.00;;
78209;SDS011;67485;48.816;9.930;2023-02-28T01:41:22;7.45;;;2.17;;
78209;SDS011;67485;48.816;9.930;2023-02-28T01:46:15;4.80;;;1.80;;
78209;SDS011;67485;48.816;9.930;2023-02-28T01:48:43;6.80;;;1.77;;
78209;SDS011;67485;48.816;9.930;2023-02-28T01:54:05;5.57;;;1.92;;
78209;SDS011;67485;48.816;9.930;2023-02-28T01:56:40;5.25;;;1.80;;
78209;SDS011;67485;48.816;9.930;2023-02-28T01:59:37;5.97;;;1.73;;
78209;SDS011;67485;48.816;9.930;2023-02-28T02:02:17;4.60;;;1.90;;
78209;SDS011;67485;48.816;9.930;2023-02-28T02:04:47;6.03;;;1.73;;
78209;SDS011;67485;48.816;9.930;2023-02-28T02:07:26;3.20;;;1.55;;
78209;SDS011;67485;48.816;9.930;2023-02-28T02:10:04;5.70;;;1.60;;
78209;SDS011;67485;48.816;9.930;2023-02-28T02:15:06;5.23;;;1.80;;
78209;SDS011;67485;48.816;9.930;2023-02-28T02:17:38;4.70;;;1.83;;
78209;SDS011;67485;48.816;9.930;2023-02-28T02:25:32;4.43;;;1.63;;
78209;SDS011;67485;48.816;9.930;2023-02-28T02:34:19;6.70;;;1.83;;
78209;SDS011;67485;48.816;9.930;2023-02-28T02:36:38;5.30;;;1.70;;
78209;SDS011;67485;48.816;9.930;2023-02-28T02:39:20;4.65;;;2.13;;
78209;SDS011;67485;48.816;9.930;2023-02-28T02:41:53;4.65;;;2.15;;
78209;SDS011;67485;48.816;9.930;2023-02-28T02:47:10;4.95;;;1.75;;
78209;SDS011;67485;48.816;9.930;2023-02-28T02:49:42;5.13;;;2.23;;
78209;SDS011;67485;48.816;9.930;2023-02-28T02:52:12;5.65;;;2.47;;
78209;SDS011;67485;48.816;9.930;2023-02-28T02:54:43;7.10;;;2.17;;
78209;SDS011;67485;48.816;9.930;2023-02-28T02:57:14;4.15;;;1.65;;
78209;SDS011;67485;48.816;9.930;2023-02-28T02:59:46;5.45;;;2.35;;
78209;SDS011;67485;48.816;9.930;2023-02-28T03:02:15;4.53;;;2.00;;
78209;SDS011;67485;48.816;9.930;2023-02-28T03:04:48;5.88;;;2.30;;
78209;SDS011;67485;48.816;9.930;2023-02-28T03:07:20;4.05;;;2.00;;
78209;SDS011;67485;48.816;9.930;2023-02-28T03:09:50;4.50;;;1.88;;
78209;SDS011;67485;48.816;9.930;2023-02-28T03:12:18;4.35;;;2.00;;
78209;SDS011;67485;48.816;9.930;2023-02-28T03:14:50;5.17;;;2.13;;
78209;SDS011;67485;48.816;9.930;2023-02-28T03:17:24;4.13;;;1.95;;
78209;SDS011;67485;48.816;9.930;2023-02-28T03:30:49;4.60;;;2.22;;
78209;SDS011;67485;48.816;9.930;2023-02-28T03:33:21;5.30;;;2.40;;
78209;SDS011;67485;48.816;9.930;2023-02-28T03:36:02;4.53;;;2.00;;
78209;SDS011;67485;48.816;9.930;2023-02-28T03:38:36;5.45;;;1.95;;
78209;SDS011;67485;48.816;9.930;2023-02-28T03:41:22;4.50;;;2.38;;
78209;SDS011;67485;48.816;9.930;2023-02-28T03:43:55;4.75;;;2.60;;
78209;SDS011;67485;48.816;9.930;2023-02-28T03:46:25;4.20;;;2.30;;
78209;SDS011;67485;48.816;9.930;2023-02-28T03:49:28;6.43;;;2.07;;
78209;SDS011;67485;48.816;9.930;2023-02-28T03:51:49;5.35;;;2.30;;
78209;SDS011;67485;48.816;9.930;2023-02-28T03:54:22;4.53;;;2.33;;
78209;SDS011;67485;48.816;9.930;2023-02-28T03:56:59;6.03;;;2.63;;
78209;SDS011;67485;48.816;9.930;2023-02-28T03:59:46;6.10;;;2.55;;
78209;SDS011;67485;48.816;9.930;2023-02-28T04:02:16;5.07;;;2.50;;
78209;SDS011;67485;48.816;9.930;2023-02-28T04:04:43;5.18;;;2.30;;
78209;SDS011;67485;48.816;9.930;2023-02-28T04:07:10;4.47;;;2.50;;
78209;SDS011;67485;48.816;9.930;2023-02-28T04:09:37;6.15;;;2.55;;
78209;SDS011;67485;48.816;9.930;2023-02-28T04:12:03;4.17;;;2.17;;
78209;SDS011;67485;48.816;9.930;2023-02-28T04:14:29;7.03;;;2.70;;
78209;SDS011;67485;48.816;9.930;2023-02-28T04:16:54;9.73;;;2.60;;
78209;SDS011;67485;48.816;9.930;2023-02-28T04:19:20;6.40;;;2.30;;
78209;SDS011;67485;48.816;9.930;2023-02-28T04:21:47;5.13;;;2.65;;
78209;SDS011;67485;48.816;9.930;2023-02-28T04:24:16;5.20;;;2.60;;
78209;SDS011;67485;48.816;9.930;2023-02-28T04:26:47;5.03;;;2.40;;
78209;SDS011;67485;48.816;9.930;2023-02-28T04:29:18;4.13;;;2.42;;
78209;SDS011;67485;48.816;9.930;2023-02-28T04:32:02;4.65;;;2.50;;
78209;SDS011;67485;48.816;9.930;2023-02-28T04:34:29;5.78;;;2.95;;
78209;SDS011;67485;48.816;9.930;2023-02-28T04:36:56;4.75;;;2.65;;
78209;SDS011;67485;48.816;9.930;2023-02-28T04:39:23;5.90;;;2.37;;
78209;SDS011;67485;48.816;9.930;2023-02-28T04:41:49;6.80;;;2.53;;
78209;SDS011;67485;48.816;9.930;2023-02-28T04:44:15;5.00;;;2.38;;
78209;SDS011;67485;48.816;9.930;2023-02-28T04:46:42;6.75;;;2.90;;
78209;SDS011;67485;48.816;9.930;2023-02-28T04:49:09;6.85;;;2.80;;
78209;SDS011;67485;48.816;9.930;2023-02-28T04:51:36;6.97;;;2.43;;
78209;SDS011;67485;48.816;9.930;2023-02-28T04:54:02;6.32;;;3.13;;
78209;SDS011;67485;48.816;9.930;2023-02-28T04:56:28;7.00;;;3.20;;
78209;SDS011;67485;48.816;9.930;2023-02-28T04:58:53;5.60;;;3.25;;
78209;SDS011;67485;48.816;9.930;2023-02-28T05:01:30;4.22;;;2.35;;
78209;SDS011;67485;48.816;9.930;2023-02-28T05:03:58;6.20;;;2.95;;
78209;SDS011;67485;48.816;9.930;2023-02-28T05:06:26;6.05;;;2.83;;
78209;SDS011;67485;48.816;9.930;2023-02-28T05:08:53;6.68;;;3.53;;
78209;SDS011;67485;48.816;9.930;2023-02-28T05:13:52;4.88;;;2.70;;
78209;SDS011;67485;48.816;9.930;2023-02-28T05:16:18;5.43;;;2.70;;
78209;SDS011;67485;48.816;9.930;2023-02-28T05:18:45;5.57;;;2.70;;
78209;SDS011;67485;48.816;9.930;2023-02-28T05:24:15;7.85;;;3.40;;
78209;SDS011;67485;48.816;9.930;2023-02-28T05:26:48;7.80;;;3.35;;
78209;SDS011;67485;48.816;9.930;2023-02-28T05:29:16;6.70;;;3.33;;
78209;SDS011;67485;48.816;9.930;2023-02-28T05:31:42;7.05;;;3.10;;
78209;SDS011;67485;48.816;9.930;2023-02-28T05:34:08;5.47;;;3.00;;
78209;SDS011;67485;48.816;9.930;2023-02-28T05:36:36;5.47;;;2.77;;
78209;SDS011;67485;48.816;9.930;2023-02-28T05:39:02;4.85;;;3.00;;
78209;SDS011;67485;48.816;9.930;2023-02-28T05:41:29;5.05;;;2.92;;
78209;SDS011;67485;48.816;9.930;2023-02-28T05:43:54;7.07;;;3.13;;
78209;SDS011;67485;48.816;9.930;2023-02-28T05:46:20;6.07;;;3.10;;
78209;SDS011;67485;48.816;9.930;2023-02-28T05:48:46;7.18;;;3.50;;
78209;SDS011;67485;48.816;9.930;2023-02-28T05:51:13;7.20;;;3.53;;
78209;SDS011;67485;48.816;9.930;2023-02-28T05:53:38;7.28;;;4.28;;
78209;SDS011;67485;48.816;9.930;2023-02-28T05:56:04;6.93;;;3.38;;
78209;SDS011;67485;48.816;9.930;2023-02-28T05:58:30;6.55;;;3.60;;
78209;SDS011;67485;48.816;9.930;2023-02-28T06:00:59;8.23;;;4.03;;
78209;SDS011;67485;48.816;9.930;2023-02-28T06:03:43;7.80;;;4.15;;
78209;SDS011;67485;48.816;9.930;2023-02-28T06:06:09;8.13;;;4.40;;
78209;SDS011;67485;48.816;9.930;2023-02-28T06:08:34;8.77;;;4.35;;
78209;SDS011;67485;48.816;9.930;2023-02-28T06:11:02;6.80;;;3.63;;
78209;SDS011;67485;48.816;9.930;2023-02-28T06:13:28;6.90;;;3.88;;
78209;SDS011;67485;48.816;9.930;2023-02-28T06:15:55;7.03;;;3.47;;
78209;SDS011;67485;48.816;9.930;2023-02-28T06:18:20;7.53;;;3.80;;
78209;SDS011;67485;48.816;9.930;2023-02-28T06:20:52;8.60;;;3.70;;
78209;SDS011;67485;48.816;9.930;2023-02-28T06:23:21;7.47;;;3.88;;
78209;SDS011;67485;48.816;9.930;2023-02-28T06:25:47;6.97;;;3.50;;
78209;SDS011;67485;48.816;9.930;2023-02-28T06:28:13;7.82;;;4.07;;
78209;SDS011;67485;48.816;9.930;2023-02-28T06:30:39;8.43;;;4.10;;
78209;SDS011;67485;48.816;9.930;2023-02-28T06:33:04;6.70;;;3.47;;
78209;SDS011;67485;48.816;9.930;2023-02-28T06:35:30;8.57;;;4.03;;
78209;SDS011;67485;48.816;9.930;2023-02-28T06:37:56;8.32;;;3.90;;
78209;SDS011;67485;48.816;9.930;2023-02-28T06:40:23;5.82;;;3.72;;
78209;SDS011;67485;48.816;9.930;2023-02-28T06:42:48;8.67;;;4.07;;
78209;SDS011;67485;48.816;9.930;2023-02-28T06:45:14;5.78;;;3.65;;
78209;SDS011;67485;48.816;9.930;2023-02-28T06:47:40;7.40;;;4.10;;
78209;SDS011;67485;48.816;9.930;2023-02-28T06:50:08;7.60;;;3.95;;
78209;SDS011;67485;48.816;9.930;2023-02-28T06:52:35;8.15;;;4.15;;
78209;SDS011;67485;48.816;9.930;2023-02-28T06:55:03;10.02;;;4.10;;
78209;SDS011;67485;48.816;9.930;2023-02-28T06:57:30;7.20;;;4.03;;
78209;SDS011;67485;48.816;9.930;2023-02-28T06:59:58;6.20;;;3.85;;
78209;SDS011;67485;48.816;9.930;2023-02-28T07:02:25;10.05;;;4.30;;
78209;SDS011;67485;48.816;9.930;2023-02-28T07:04:51;9.07;;;4.43;;
78209;SDS011;67485;48.816;9.930;2023-02-28T07:07:17;6.77;;;4.10;;
78209;SDS011;67485;48.816;9.930;2023-02-28T07:09:42;9.15;;;4.30;;
78209;SDS011;67485;48.816;9.930;2023-02-28T07:12:08;8.07;;;4.30;;
78209;SDS011;67485;48.816;9.930;2023-02-28T07:14:35;9.50;;;4.40;;
78209;SDS011;67485;48.816;9.930;2023-02-28T07:17:02;8.13;;;4.35;;
78209;SDS011;67485;48.816;9.930;2023-02-28T07:19:27;7.20;;;4.30;;
78209;SDS011;67485;48.816;9.930;2023-02-28T07:21:53;8.38;;;4.80;;
78209;SDS011;67485;48.816;9.930;2023-02-28T07:24:19;7.33;;;3.63;;
78209;SDS011;67485;48.816;9.930;2023-02-28T07:26:45;8.77;;;4.35;;
78209;SDS011;67485;48.816;9.930;2023-02-28T07:29:11;7.90;;;4.03;;
78209;SDS011;67485;48.816;9.930;2023-02-28T07:31:37;10.00;;;4.40;;
78209;SDS011;67485;48.816;9.930;2023-02-28T07:34:02;8.60;;;4.10;;
78209;SDS011;67485;48.816;9.930;2023-02-28T07:36:28;8.27;;;4.70;;
78209;SDS011;67485;48.816;9.930;2023-02-28T07:38:54;10.00;;;4.37;;
78209;SDS011;67485;48.816;9.930;2023-02-28T07:41:21;7.88;;;4.20;;
78209;SDS011;67485;48.816;9.930;2023-02-28T07:43:47;10.10;;;5.05;;
78209;SDS011;67485;48.816;9.930;2023-02-28T07:46:14;9.73;;;4.22;;
78209;SDS011;67485;48.816;9.930;2023-02-28T07:48:40;7.70;;;4.17;;
78209;SDS011;67485;48.816;9.930;2023-02-28T07:51:06;10.48;;;4.65;;
78209;SDS011;67485;48.816;9.930;2023-02-28T07:53:32;8.27;;;4.30;;
78209;SDS011;67485;48.816;9.930;2023-02-28T07:55:59;8.85;;;4.30;;
78209;SDS011;67485;48.816;9.930;2023-02-28T07:58:26;7.95;;;3.95;;
78209;SDS011;67485;48.816;9.930;2023-02-28T08:00:52;7.65;;;4.18;;
78209;SDS011;67485;48.816;9.930;2023-02-28T08:03:18;10.20;;;4.25;;
78209;SDS011;67485;48.816;9.930;2023-02-28T08:05:46;11.25;;;5.05;;
78209;SDS011;67485;48.816;9.930;2023-02-28T08:08:13;8.43;;;4.60;;
78209;SDS011;67485;48.816;9.930;2023-02-28T08:10:39;9.30;;;5.00;;
78209;SDS011;67485;48.816;9.930;2023-02-28T08:13:04;8.73;;;4.85;;
78209;SDS011;67485;48.816;9.930;2023-02-28T08:15:30;7.80;;;4.23;;
78209;SDS011;67485;48.816;9.930;2023-02-28T08:17:56;8.20;;;5.13;;
78209;SDS011;67485;48.816;9.930;2023-02-28T08:20:23;14.25;;;6.28;;
78209;SDS011;67485;48.816;9.930;2023-02-28T08:22:49;10.02;;;5.88;;
78209;SDS011;67485;48.816;9.930;2023-02-28T08:25:15;10.57;;;4.85;;
78209;SDS011;67485;48.816;9.930;2023-02-28T08:27:41;9.47;;;4.97;;
78209;SDS011;67485;48.816;9.930;2023-02-28T08:30:07;8.32;;;5.20;;
78209;SDS011;67485;48.816;9.930;2023-02-28T08:32:35;10.45;;;5.90;;
78209;SDS011;67485;48.816;9.930;2023-02-28T08:35:01;7.73;;;4.53;;
78209;SDS011;67485;48.816;9.930;2023-02-28T08:37:28;11.00;;;5.32;;
78209;SDS011;67485;48.816;9.930;2023-02-28T08:39:54;11.88;;;6.13;;
78209;SDS011;67485;48.816;9.930;2023-02-28T08:42:19;12.90;;;6.40;;
78209;SDS011;67485;48.816;9.930;2023-02-28T08:44:45;9.60;;;5.25;;
78209;SDS011;67485;48.816;9.930;2023-02-28T08:47:11;9.57;;;4.90;;
78209;SDS011;67485;48.816;9.930;2023-02-28T08:49:36;7.87;;;4.73;;
78209;SDS011;67485;48.816;9.930;2023-02-28T08:52:03;9.90;;;5.30;;
78209;SDS011;67485;48.816;9.930;2023-02-28T08:54:28;8.40;;;4.75;;
78209;SDS011;67485;48.816;9.930;2023-02-28T08:56:56;7.95;;;5.03;;
78209;SDS011;67485;48.816;9.930;2023-02-28T08:59:22;11.60;;;5.53;;
78209;SDS011;67485;48.816;9.930;2023-02-28T09:01:48;8.57;;;4.88;;
78209;SDS011;67485;48.816;9.930;2023-02-28T09:04:14;9.18;;;4.70;;
78209;SDS011;67485;48.816;9.930;2023-02-28T09:06:39;11.68;;;5.53;;
78209;SDS011;67485;48.816;9.930;2023-02-28T09:09:05;9.55;;;4.95;;
78209;SDS011;67485;48.816;9.930;2023-02-28T09:11:33;9.68;;;5.32;;
78209;SDS011;67485;48.816;9.930;2023-02-28T09:14:00;8.30;;;5.20;;
78209;SDS011;67485;48.816;9.930;2023-02-28T09:16:28;9.13;;;3.92;;
78209;SDS011;67485;48.816;9.930;2023-02-28T09:18:56;7.03;;;4.00;;
78209;SDS011;67485;48.816;9.930;2023-02-28T09:21:21;9.23;;;5.10;;
78209;SDS011;67485;48.816;9.930;2023-02-28T09:23:48;7.50;;;4.00;;
78209;SDS011;67485;48.816;9.930;2023-02-28T09:26:17;6.63;;;4.20;;
78209;SDS011;67485;48.816;9.930;2023-02-28T09:28:46;8.73;;;4.35;;
78209;SDS011;67485;48.816;9.930;2023-02-28T09:31:19;10.20;;;4.63;;
78209;SDS011;67485;48.816;9.930;2023-02-28T09:33:50;8.27;;;4.90;;
78209;SDS011;67485;48.816;9.930;2023-02-28T09:36:18;8.60;;;5.00;;
78209;SDS011;67485;48.816;9.930;2023-02-28T09:38:44;7.13;;;3.67;;
78209;SDS011;67485;48.816;9.930;2023-02-28T09:41:13;10.88;;;4.97;;
78209;SDS011;67485;48.816;9.930;2023-02-28T09:43:44;8.48;;;5.15;;
78209;SDS011;67485;48.816;9.930;2023-02-28T09:49:20;8.03;;;4.27;;
78209;SDS011;67485;48.816;9.930;2023-02-28T09:52:01;9.85;;;4.78;;
78209;SDS011;67485;48.816;9.930;2023-02-28T09:54:30;7.22;;;3.88;;
78209;SDS011;67485;48.816;9.930;2023-02-28T09:57:57;6.35;;;3.30;;
78209;SDS011;67485;48.816;9.930;2023-02-28T10:08:42;9.07;;;4.57;;
78209;SDS011;67485;48.816;9.930;2023-02-28T10:11:16;6.63;;;4.07;;
78209;SDS011;67485;48.816;9.930;2023-02-28T10:16:52;8.10;;;4.13;;
78209;SDS011;67485;48.816;9.930;2023-02-28T10:22:18;6.82;;;4.68;;
78209;SDS011;67485;48.816;9.930;2023-02-28T10:24:55;7.95;;;4.72;;
78209;SDS011;67485;48.816;9.930;2023-02-28T10:27:27;9.27;;;5.15;;
78209;SDS011;67485;48.816;9.930;2023-02-28T10:29:58;8.30;;;4.03;;
78209;SDS011;67485;48.816;9.930;2023-02-28T10:32:27;12.95;;;4.90;;
78209;SDS011;67485;48.816;9.930;2023-02-28T10:35:09;8.23;;;5.00;;
78209;SDS011;67485;48.816;9.930;2023-02-28T10:37:41;7.93;;;4.82;;
78209;SDS011;67485;48.816;9.930;2023-02-28T10:42:54;11.67;;;5.43;;
78209;SDS011;67485;48.816;9.930;2023-02-28T10:45:21;8.18;;;4.75;;
78209;SDS011;67485;48.816;9.930;2023-02-28T10:50:27;7.85;;;4.43;;
78209;SDS011;67485;48.816;9.930;2023-02-28T10:53:45;7.97;;;4.78;;
78209;SDS011;67485;48.816;9.930;2023-02-28T10:55:58;9.83;;;5.00;;
78209;SDS011;67485;48.816;9.930;2023-02-28T10:58:31;9.50;;;4.70;;
78209;SDS011;67485;48.816;9.930;2023-02-28T11:01:38;9.95;;;5.57;;
78209;SDS011;67485;48.816;9.930;2023-02-28T11:06:47;8.27;;;5.25;;
78209;SDS011;67485;48.816;9.930;2023-02-28T11:09:36;9.07;;;5.20;;
78209;SDS011;67485;48.816;9.930;2023-02-28T11:12:05;8.13;;;4.85;;
78209;SDS011;67485;48.816;9.930;2023-02-28T11:14:34;7.38;;;4.85;;
78209;SDS011;67485;48.816;9.930;2023-02-28T11:17:19;7.65;;;4.55;;
78209;SDS011;67485;48.816;9.930;2023-02-28T11:19:48;9.02;;;4.75;;
78209;SDS011;67485;48.816;9.930;2023-02-28T11:22:18;7.03;;;4.20;;
78209;SDS011;67485;48.816;9.930;2023-02-28T11:24:47;8.25;;;4.40;;
78209;SDS011;67485;48.816;9.930;2023-02-28T11:27:26;8.63;;;4.80;;
78209;SDS011;67485;48.816;9.930;2023-02-28T11:30:02;8.55;;;4.50;;
78209;SDS011;67485;48.816;9.930;2023-02-28T11:32:30;7.07;;;4.50;;
78209;SDS011;67485;48.816;9.930;2023-02-28T11:37:34;9.10;;;5.07;;
78209;SDS011;67485;48.816;9.930;2023-02-28T11:40:01;8.50;;;5.05;;
78209;SDS011;67485;48.816;9.930;2023-02-28T11:48:37;6.83;;;4.63;;
78209;SDS011;67485;48.816;9.930;2023-02-28T11:50:57;7.47;;;4.68;;
78209;SDS011;67485;48.816;9.930;2023-02-28T11:56:20;11.38;;;5.03;;
78209;SDS011;67485;48.816;9.930;2023-02-28T12:13:24;7.90;;;4.40;;
78209;SDS011;67485;48.816;9.930;2023-02-28T12:15:49;8.17;;;4.83;;
78209;SDS011;67485;48.816;9.930;2023-02-28T12:21:27;7.75;;;4.60;;
78209;SDS011;67485;48.816;9.930;2023-02-28T12:24:36;8.43;;;4.90;;
78209;SDS011;67485;48.816;9.930;2023-02-28T12:27:00;8.13;;;4.63;;
78209;SDS011;67485;48.816;9.930;2023-02-28T12:29:37;8.43;;;4.87;;
78209;SDS011;67485;48.816;9.930;2023-02-28T12:32:36;8.45;;;4.80;;
78209;SDS011;67485;48.816;9.930;2023-02-28T12:35:05;8.18;;;4.72;;
78209;SDS011;67485;48.816;9.930;2023-02-28T12:40:22;9.25;;;4.90;;
78209;SDS011;67485;48.816;9.930;2023-02-28T12:42:57;8.90;;;4.70;;
78209;SDS011;67485;48.816;9.930;2023-02-28T12:48:08;6.97;;;4.30;;
78209;SDS011;67485;48.816;9.930;2023-02-28T12:50:40;8.88;;;4.63;;
78209;SDS011;67485;48.816;9.930;2023-02-28T12:53:08;8.07;;;4.72;;
78209;SDS011;67485;48.816;9.930;2023-02-28T13:00:54;7.43;;;4.90;;
78209;SDS011;67485;48.816;9.930;2023-02-28T13:03:32;7.68;;;4.50;;
78209;SDS011;67485;48.816;9.930;2023-02-28T13:06:22;9.55;;;5.40;;
78209;SDS011;67485;48.816;9.930;2023-02-28T13:09:19;7.27;;;4.43;;
78209;SDS011;67485;48.816;9.930;2023-02-28T13:11:47;8.27;;;4.75;;
78209;SDS011;67485;48.816;9.930;2023-02-28T13:19:25;11.90;;;5.05;;
78209;SDS011;67485;48.816;9.930;2023-02-28T13:21:53;11.37;;;5.00;;
78209;SDS011;67485;48.816;9.930;2023-02-28T13:27:17;9.90;;;5.30;;
78209;SDS011;67485;48.816;9.930;2023-02-28T13:29:50;8.95;;;4.93;;
78209;SDS011;67485;48.816;9.930;2023-02-28T13:32:31;9.57;;;5.25;;
78209;SDS011;67485;48.816;9.930;2023-02-28T13:39:58;9.32;;;4.93;;
78209;SDS011;67485;48.816;9.930;2023-02-28T13:47:48;9.00;;;5.50;;
78209;SDS011;67485;48.816;9.930;2023-02-28T14:01:47;9.05;;;5.18;;
78209;SDS011;67485;48.816;9.930;2023-02-28T14:07:40;8.80;;;5.10;;
78209;SDS011;67485;48.816;9.930;2023-02-28T14:10:20;9.30;;;5.13;;
78209;SDS011;67485;48.816;9.930;2023-02-28T14:17:58;8.93;;;5.27;;
78209;SDS011;67485;48.816;9.930;2023-02-28T14:20:27;9.48;;;5.38;;
78209;SDS011;67485;48.816;9.930;2023-02-28T14:31:18;8.97;;;5.20;;
78209;SDS011;67485;48.816;9.930;2023-02-28T14:36:50;8.07;;;5.57;;
78209;SDS011;67485;48.816;9.930;2023-02-28T14:39:25;9.13;;;4.90;;
78209;SDS011;67485;48.816;9.930;2023-02-28T14:41:52;9.13;;;5.13;;
78209;SDS011;67485;48.816;9.930;2023-02-28T14:44:25;9.63;;;4.77;;
78209;SDS011;67485;48.816;9.930;2023-02-28T14:46:56;8.95;;;5.00;;
78209;SDS011;67485;48.816;9.930;2023-02-28T14:54:38;7.50;;;4.90;;
78209;SDS011;67485;48.816;9.930;2023-02-28T14:57:05;8.30;;;4.80;;
78209;SDS011;67485;48.816;9.930;2023-02-28T14:59:32;8.43;;;5.15;;
78209;SDS011;67485;48.816;9.930;2023-02-28T15:05:02;8.93;;;4.50;;
78209;SDS011;67485;48.816;9.930;2023-02-28T15:07:35;8.43;;;5.07;;
78209;SDS011;67485;48.816;9.930;2023-02-28T15:10:08;7.55;;;5.43;;
78209;SDS011;67485;48.816;9.930;2023-02-28T15:12:49;8.18;;;5.00;;
78209;SDS011;67485;48.816;9.930;2023-02-28T15:15:19;9.50;;;5.78;;
78209;SDS011;67485;48.816;9.930;2023-02-28T15:17:50;8.03;;;4.53;;
78209;SDS011;67485;48.816;9.930;2023-02-28T15:20:19;8.90;;;5.25;;
78209;SDS011;67485;48.816;9.930;2023-02-28T15:22:46;10.48;;;5.20;;
78209;SDS011;67485;48.816;9.930;2023-02-28T15:25:15;10.52;;;5.28;;
78209;SDS011;67485;48.816;9.930;2023-02-28T15:27:49;9.32;;;5.63;;
78209;SDS011;67485;48.816;9.930;2023-02-28T15:30:19;8.93;;;5.43;;
78209;SDS011;67485;48.816;9.930;2023-02-28T15:33:06;9.20;;;5.35;;
78209;SDS011;67485;48.816;9.930;2023-02-28T15:35:41;10.70;;;5.30;;
78209;SDS011;67485;48.816;9.930;2023-02-28T15:38:14;9.63;;;5.50;;
78209;SDS011;67485;48.816;9.930;2023-02-28T15:40:50;9.97;;;5.30;;
78209;SDS011;67485;48.816;9.930;2023-02-28T15:43:27;9.40;;;5.10;;
78209;SDS011;67485;48.816;9.930;2023-02-28T15:48:42;9.43;;;5.70;;
78209;SDS011;67485;48.816;9.930;2023-02-28T15:51:23;9.70;;;5.35;;
78209;SDS011;67485;48.816;9.930;2023-02-28T15:53:56;9.68;;;5.57;;
78209;SDS011;67485;48.816;9.930;2023-02-28T15:56:25;8.38;;;5.10;;
78209;SDS011;67485;48.816;9.930;2023-02-28T15:58:54;9.80;;;5.38;;
78209;SDS011;67485;48.816;9.930;2023-02-28T16:01:25;9.43;;;5.43;;
78209;SDS011;67485;48.816;9.930;2023-02-28T16:03:54;10.73;;;5.90;;
78209;SDS011;67485;48.816;9.930;2023-02-28T16:06:24;10.97;;;5.50;;
78209;SDS011;67485;48.816;9.930;2023-02-28T16:09:13;10.90;;;5.03;;
78209;SDS011;67485;48.816;9.930;2023-02-28T16:11:41;11.77;;;5.57;;
78209;SDS011;67485;48.816;9.930;2023-02-28T16:14:14;11.48;;;5.85;;
78209;SDS011;67485;48.816;9.930;2023-02-28T16:16:49;13.50;;;7.65;;
78209;SDS011;67485;48.816;9.930;2023-02-28T16:19:17;12.57;;;6.60;;
78209;SDS011;67485;48.816;9.930;2023-02-28T16:21:43;10.40;;;6.35;;
78209;SDS011;67485;48.816;9.930;2023-02-28T16:24:09;10.73;;;6.00;;
78209;SDS011;67485;48.816;9.930;2023-02-28T16:26:35;11.30;;;6.23;;
78209;SDS011;67485;48.816;9.930;2023-02-28T16:29:02;10.90;;;6.63;;
78209;SDS011;67485;48.816;9.930;2023-02-28T16:31:29;11.68;;;5.93;;
78209;SDS011;67485;48.816;9.930;2023-02-28T16:33:56;13.00;;;6.43;;
78209;SDS011;67485;48.816;9.930;2023-02-28T16:36:22;12.37;;;6.27;;
78209;SDS011;67485;48.816;9.930;2023-02-28T16:38:52;13.45;;;6.55;;
78209;SDS011;67485;48.816;9.930;2023-02-28T16:41:19;14.80;;;6.82;;
78209;SDS011;67485;48.816;9.930;2023-02-28T16:43:48;10.23;;;6.10;;
78209;SDS011;67485;48.816;9.930;2023-02-28T16:46:16;12.63;;;6.53;;
78209;SDS011;67485;48.816;9.930;2023-02-28T16:48:43;11.23;;;6.50;;
78209;SDS011;67485;48.816;9.930;2023-02-28T16:51:13;12.38;;;6.43;;
78209;SDS011;67485;48.816;9.930;2023-02-28T16:53:40;12.85;;;7.00;;
78209;SDS011;67485;48.816;9.930;2023-02-28T16:56:12;12.93;;;7.00;;
78209;SDS011;67485;48.816;9.930;2023-02-28T16:58:42;14.63;;;7.18;;
78209;SDS011;67485;48.816;9.930;2023-02-28T17:01:08;15.57;;;7.80;;
78209;SDS011;67485;48.816;9.930;2023-02-28T17:03:33;14.38;;;6.90;;
78209;SDS011;67485;48.816;9.930;2023-02-28T17:06:01;14.65;;;7.75;;
78209;SDS011;67485;48.816;9.930;2023-02-28T17:08:28;15.55;;;7.75;;
78209;SDS011;67485;48.816;9.930;2023-02-28T17:10:55;17.13;;;9.02;;
78209;SDS011;67485;48.816;9.930;2023-02-28T17:13:21;20.92;;;8.52;;
78209;SDS011;67485;48.816;9.930;2023-02-28T17:15:46;20.70;;;9.83;;
78209;SDS011;67485;48.816;9.930;2023-02-28T17:18:13;15.50;;;8.32;;
78209;SDS011;67485;48.816;9.930;2023-02-28T17:20:44;16.08;;;8.48;;
78209;SDS011;67485;48.816;9.930;2023-02-28T17:23:10;16.80;;;8.77;;
78209;SDS011;67485;48.816;9.930;2023-02-28T17:25:36;23.98;;;10.70;;
78209;SDS011;67485;48.816;9.930;2023-02-28T17:28:02;25.27;;;9.87;;
78209;SDS011;67485;48.816;9.930;2023-02-28T17:30:28;25.95;;;10.02;;
78209;SDS011;67485;48.816;9.930;2023-02-28T17:32:59;23.17;;;9.52;;
78209;SDS011;67485;48.816;9.930;2023-02-28T17:35:24;23.47;;;9.93;;
78209;SDS011;67485;48.816;9.930;2023-02-28T17:37:51;18.52;;;9.52;;
78209;SDS011;67485;48.816;9.930;2023-02-28T17:40:19;21.95;;;10.05;;
78209;SDS011;67485;48.816;9.930;2023-02-28T17:42:46;16.08;;;9.35;;
78209;SDS011;67485;48.816;9.930;2023-02-28T17:45:13;13.43;;;6.70;;